Time;durP1;ratioP1;P1;durP2;ratioP2;P2;SDS_P1;SDS_P2;PMS_P1;PMS_P2;Temp;Humidity;BMP_temperature;BMP_pressure;BME280_temperature;BME280_humidity;BME280_pressure;Samples;Min_cycle;Max_cycle;Signal;HPM_P1;HPM_P2
2024/02/09 00:00:45;;;;;;;21.23;8.03;;;10.40;99.90;;;;;;800195;177;26965;-79
2024/02/09 00:03:12;;;;;;;22.37;8.33;;;10.40;99.90;;;;;;803346;177;26414;-80
2024/02/09 00:05:39;;;;;;;18.53;8.30;;;10.40;99.90;;;;;;802322;175;26975;-79
2024/02/09 00:08:06;;;;;;;23.77;8.10;;;10.30;99.90;;;;;;805798;177;26433;-78
2024/02/09 00:10:36;;;;;;;21.10;7.43;;;10.40;99.90;;;;;;806801;177;26420;-80
2024/02/09 00:13:04;;;;;;;17.33;7.60;;;10.40;99.90;;;;;;795493;176;26433;-80
2024/02/09 00:15:28;;;;;;;20.17;7.53;;;10.40;99.90;;;;;;804528;177;26438;-80
2024/02/09 00:17:54;;;;;;;22.07;7.90;;;10.40;99.90;;;;;;806386;177;26616;-79
2024/02/09 00:20:22;;;;;;;21.67;8.07;;;10.40;99.90;;;;;;784141;181;26438;-81
2024/02/09 00:22:49;;;;;;;20.87;7.70;;;10.40;99.90;;;;;;783133;182;26466;-79
2024/02/09 00:25:15;;;;;;;26.10;8.27;;;10.40;99.90;;;;;;784194;181;27038;-82
2024/02/09 00:27:43;;;;;;;27.20;9.17;;;10.40;99.90;;;;;;781441;181;26499;-79
2024/02/09 00:30:09;;;;;;;23.70;8.70;;;10.40;99.90;;;;;;785506;180;26587;-80
2024/02/09 00:32:35;;;;;;;28.10;9.03;;;10.40;99.90;;;;;;804579;177;26428;-79
2024/02/09 00:35:02;;;;;;;27.20;9.43;;;10.40;99.90;;;;;;799856;177;26454;-80
2024/02/09 00:37:29;;;;;;;24.13;8.47;;;10.40;99.90;;;;;;798478;179;26986;-79
2024/02/09 00:39:55;;;;;;;20.90;9.30;;;10.40;99.90;;;;;;785195;178;26465;-80
2024/02/09 00:42:23;;;;;;;18.83;8.43;;;10.40;99.90;;;;;;810709;177;26459;-82
2024/02/09 00:44:49;;;;;;;25.30;8.87;;;10.40;99.90;;;;;;807072;173;26469;-78
2024/02/09 00:47:22;;;;;;;23.80;8.80;;;10.40;99.90;;;;;;793189;180;26566;-78
2024/02/09 00:49:46;;;;;;;24.10;8.27;;;10.40;99.90;;;;;;820587;174;26572;-79
2024/02/09 00:52:14;;;;;;;19.70;9.10;;;10.40;99.90;;;;;;827749;173;26416;-79
2024/02/09 00:54:41;;;;;;;20.83;8.43;;;10.40;99.90;;;;;;821968;172;26430;-79
2024/02/09 00:57:10;;;;;;;24.27;8.93;;;10.40;99.90;;;;;;814991;176;26425;-79
2024/02/09 00:59:38;;;;;;;21.33;9.03;;;10.40;99.90;;;;;;794685;177;26439;-79
2024/02/09 01:02:06;;;;;;;25.60;8.07;;;10.40;99.90;;;;;;810865;174;27018;-79
2024/02/09 01:04:33;;;;;;;23.20;8.70;;;10.30;99.90;;;;;;815339;173;26437;-79
2024/02/09 01:07:03;;;;;;;23.10;8.53;;;10.30;99.90;;;;;;813432;177;26451;-80
2024/02/09 01:09:28;;;;;;;24.87;10.00;;;10.30;99.90;;;;;;812597;174;27620;-80
2024/02/09 01:11:55;;;;;;;32.73;10.10;;;10.30;99.90;;;;;;809552;177;26417;-78
2024/02/09 02:45:58;;;;;;;20.63;6.90;;;10.30;99.90;;;;;;810226;177;27001;-79
2024/02/09 03:06:11;;;;;;;22.00;7.13;;;10.30;99.90;;;;;;803205;176;26501;-78
2024/02/09 03:08:37;;;;;;;16.73;7.03;;;10.30;99.90;;;;;;808664;176;26439;-77
2024/02/09 03:11:06;;;;;;;11.17;6.07;;;10.30;99.90;;;;;;807006;176;26428;-77
2024/02/09 03:13:32;;;;;;;13.90;6.57;;;10.30;99.90;;;;;;809581;176;26988;-76
2024/02/09 03:15:57;;;;;;;12.80;6.37;;;10.30;99.90;;;;;;806182;176;26428;-77
2024/02/09 03:18:26;;;;;;;13.13;6.10;;;10.30;99.90;;;;;;812586;176;26411;-78
2024/02/09 03:20:50;;;;;;;14.00;5.90;;;10.20;99.90;;;;;;807577;177;26430;-78
2024/02/09 03:23:19;;;;;;;16.33;6.37;;;10.20;99.90;;;;;;807722;177;26424;-78
2024/02/09 03:25:44;;;;;;;16.07;5.83;;;10.30;99.90;;;;;;811646;175;26459;-76
2024/02/09 03:28:10;;;;;;;14.07;5.17;;;10.20;99.90;;;;;;805142;177;26446;-78
2024/02/09 03:30:39;;;;;;;13.77;5.20;;;10.20;99.90;;;;;;805853;177;26428;-78
2024/02/09 03:33:04;;;;;;;9.37;4.60;;;10.30;99.90;;;;;;808141;176;26432;-78
2024/02/09 03:35:31;;;;;;;6.47;4.30;;;10.30;99.90;;;;;;809910;177;26469;-78
2024/02/09 03:37:57;;;;;;;8.73;4.80;;;10.30;99.90;;;;;;809276;177;26472;-77
2024/02/09 03:40:23;;;;;;;16.10;5.90;;;10.40;99.90;;;;;;808894;177;26485;-80
2024/02/09 03:42:50;;;;;;;7.20;4.57;;;10.30;99.90;;;;;;812252;177;26428;-78
2024/02/09 03:45:17;;;;;;;10.00;6.43;;;10.30;99.90;;;;;;810626;177;26501;-78
2024/02/09 03:47:43;;;;;;;7.80;4.70;;;10.30;99.90;;;;;;811774;177;26455;-78
2024/02/09 03:50:10;;;;;;;9.10;4.20;;;10.30;99.90;;;;;;805934;177;27198;-78
2024/02/09 03:52:37;;;;;;;7.77;3.93;;;10.40;99.90;;;;;;805666;177;26472;-79
2024/02/09 03:55:04;;;;;;;10.07;4.40;;;10.50;99.90;;;;;;811939;176;26457;-78
2024/02/09 03:57:31;;;;;;;8.90;4.17;;;10.50;99.90;;;;;;813284;176;27020;-79
2024/02/09 03:59:58;;;;;;;5.93;3.30;;;10.40;99.90;;;;;;807896;177;26449;-79
2024/02/09 04:02:24;;;;;;;10.37;4.27;;;10.50;99.90;;;;;;808204;175;26420;-79
2024/02/09 04:04:50;;;;;;;10.03;3.83;;;10.50;99.90;;;;;;812404;176;26440;-79
2024/02/09 04:07:21;;;;;;;5.70;3.00;;;10.50;99.90;;;;;;811545;177;26479;-78
2024/02/09 04:09:48;;;;;;;6.93;3.00;;;10.60;99.90;;;;;;812322;177;26425;-79
2024/02/09 04:12:14;;;;;;;5.00;3.47;;;10.50;99.90;;;;;;806340;177;26442;-79
2024/02/09 04:14:40;;;;;;;4.40;2.60;;;10.60;99.90;;;;;;813253;174;26460;-79
2024/02/09 04:17:08;;;;;;;7.40;3.90;;;10.50;99.90;;;;;;807567;176;26423;-78
2024/02/09 04:19:34;;;;;;;7.33;3.13;;;10.50;99.90;;;;;;809235;176;26494;-78
2024/02/09 04:22:01;;;;;;;6.40;3.33;;;10.50;99.90;;;;;;812739;176;26469;-78
2024/02/09 04:24:27;;;;;;;7.27;3.60;;;10.40;99.90;;;;;;809525;174;26451;-79
2024/02/09 04:26:54;;;;;;;9.27;3.57;;;10.30;99.90;;;;;;812805;176;26449;-79
2024/02/09 04:29:21;;;;;;;5.07;3.40;;;10.30;99.90;;;;;;814851;176;26432;-78
2024/02/09 04:31:47;;;;;;;5.00;3.90;;;10.20;99.90;;;;;;811809;176;26433;-78
2024/02/09 04:34:14;;;;;;;6.23;3.63;;;10.20;99.90;;;;;;809691;177;26440;-78
2024/02/09 04:36:41;;;;;;;9.53;4.00;;;10.20;99.90;;;;;;807588;177;26994;-78
2024/02/09 04:39:10;;;;;;;9.17;4.70;;;10.20;99.90;;;;;;808607;177;26432;-78
2024/02/09 04:41:35;;;;;;;7.00;4.63;;;10.20;99.90;;;;;;809256;175;27178;-78
2024/02/09 04:44:01;;;;;;;7.47;3.83;;;10.20;99.90;;;;;;807620;177;26455;-79
2024/02/09 04:46:28;;;;;;;5.77;4.13;;;10.20;99.90;;;;;;812519;176;28135;-78
2024/02/09 04:48:54;;;;;;;7.07;4.20;;;10.20;99.90;;;;;;806342;177;26418;-76
2024/02/09 04:51:21;;;;;;;9.90;4.40;;;10.10;99.90;;;;;;805372;177;26486;-78
2024/02/09 04:53:47;;;;;;;12.93;4.43;;;10.10;99.90;;;;;;809767;177;27005;-78
2024/02/09 04:56:32;;;;;;;5.90;3.37;;;10.10;99.90;;;;;;800570;177;26482;-77
2024/02/09 04:58:57;;;;;;;6.47;3.50;;;10.10;99.90;;;;;;810297;177;26469;-79
2024/02/09 05:01:27;;;;;;;9.57;4.00;;;10.10;99.90;;;;;;805973;177;26479;-77
2024/02/09 05:03:50;;;;;;;6.80;3.70;;;10.10;99.90;;;;;;803511;177;26537;-78
2024/02/09 05:06:18;;;;;;;8.93;3.97;;;10.10;99.90;;;;;;803952;177;27024;-78
2024/02/09 05:08:44;;;;;;;7.20;4.20;;;10.10;99.90;;;;;;804941;177;26482;-79
2024/02/09 05:11:10;;;;;;;7.60;3.73;;;10.10;99.90;;;;;;808186;177;26950;-78
2024/02/09 05:13:37;;;;;;;6.57;3.83;;;10.10;99.90;;;;;;807874;177;26470;-78
2024/02/09 05:16:04;;;;;;;7.37;3.70;;;10.10;99.90;;;;;;805291;177;26507;-79
2024/02/09 05:18:30;;;;;;;7.40;3.40;;;10.10;99.90;;;;;;807877;177;26452;-78
2024/02/09 05:20:57;;;;;;;9.50;3.73;;;10.10;99.90;;;;;;806546;177;26504;-79
2024/02/09 05:23:23;;;;;;;7.50;4.07;;;10.10;99.90;;;;;;809324;177;26447;-77
2024/02/09 05:25:50;;;;;;;7.40;3.57;;;10.20;99.90;;;;;;809453;175;26495;-78
2024/02/09 05:28:17;;;;;;;7.87;3.70;;;10.20;99.90;;;;;;813198;176;26979;-78
2024/02/09 05:30:43;;;;;;;6.67;3.57;;;10.20;99.90;;;;;;812631;176;26472;-73
2024/02/09 05:33:10;;;;;;;7.37;3.80;;;10.20;99.90;;;;;;811830;176;28122;-74
2024/02/09 05:35:38;;;;;;;8.20;3.67;;;10.20;99.90;;;;;;807568;176;26437;-74
2024/02/09 05:38:03;;;;;;;6.10;3.53;;;10.20;99.90;;;;;;808964;176;26477;-78
2024/02/09 05:40:30;;;;;;;5.17;3.30;;;10.30;99.90;;;;;;804114;177;26435;-78
2024/02/09 05:42:57;;;;;;;8.33;3.63;;;10.30;99.90;;;;;;807960;176;26980;-78
2024/02/09 05:45:26;;;;;;;8.33;4.07;;;10.20;99.90;;;;;;811156;176;26467;-78
2024/02/09 05:47:50;;;;;;;8.43;3.37;;;10.20;99.90;;;;;;808783;177;26437;-78
2024/02/09 05:50:19;;;;;;;6.77;3.67;;;10.20;99.90;;;;;;809132;177;26427;-78
2024/02/09 05:52:43;;;;;;;6.47;3.93;;;10.20;99.90;;;;;;806834;177;26424;-79
2024/02/09 05:55:10;;;;;;;6.10;3.80;;;10.20;99.90;;;;;;814632;177;26443;-79
2024/02/09 05:57:37;;;;;;;8.90;4.33;;;10.20;99.90;;;;;;809765;177;26458;-78
2024/02/09 06:00:03;;;;;;;8.97;4.30;;;10.20;99.90;;;;;;805362;177;27017;-79
2024/02/09 06:02:31;;;;;;;6.70;3.40;;;10.20;99.90;;;;;;813978;177;26590;-78
2024/02/09 06:04:58;;;;;;;7.47;3.87;;;10.20;99.90;;;;;;808726;177;26627;-78
2024/02/09 06:07:27;;;;;;;6.87;3.90;;;10.20;99.90;;;;;;808555;175;26463;-78
2024/02/09 06:09:51;;;;;;;10.63;4.57;;;10.20;99.90;;;;;;807854;177;28021;-78
2024/02/09 06:12:17;;;;;;;6.23;3.43;;;10.20;99.90;;;;;;808026;177;26425;-78
2024/02/09 06:14:44;;;;;;;6.63;3.47;;;10.10;99.90;;;;;;805148;176;26519;-76
2024/02/09 06:17:13;;;;;;;5.43;3.47;;;10.00;99.90;;;;;;808782;177;26478;-77
2024/02/09 06:19:37;;;;;;;3.93;3.10;;;10.00;99.90;;;;;;808942;177;26473;-77
2024/02/09 06:22:04;;;;;;;6.97;3.40;;;10.00;99.90;;;;;;808175;177;26467;-77
2024/02/09 06:24:31;;;;;;;5.53;3.70;;;10.00;99.90;;;;;;808295;177;26496;-77
2024/02/09 06:26:57;;;;;;;5.40;3.17;;;10.00;99.90;;;;;;802606;177;26505;-77
2024/02/09 06:29:24;;;;;;;5.93;3.03;;;10.00;99.90;;;;;;812204;177;26449;-79
2024/02/09 06:31:57;;;;;;;4.20;2.77;;;10.00;99.90;;;;;;807508;177;26450;-78
2024/02/09 06:34:18;;;;;;;5.80;2.90;;;10.00;99.90;;;;;;811116;174;26998;-77
2024/02/09 06:36:46;;;;;;;5.53;2.80;;;9.90;99.90;;;;;;810573;175;26519;-77
2024/02/09 06:39:11;;;;;;;5.27;2.67;;;9.90;99.90;;;;;;805518;176;26440;-77
2024/02/09 06:41:37;;;;;;;4.77;3.03;;;10.00;99.90;;;;;;807525;176;26587;-77
2024/02/09 06:44:07;;;;;;;4.13;2.50;;;10.10;99.90;;;;;;809299;170;26590;31
2024/02/09 06:46:34;;;;;;;6.33;3.43;;;10.10;99.90;;;;;;791705;180;26459;-79
2024/02/09 06:49:01;;;;;;;4.20;2.50;;;10.20;99.90;;;;;;797767;180;26498;-81
2024/02/09 06:51:27;;;;;;;5.07;2.60;;;10.20;99.90;;;;;;790813;181;26466;-79
2024/02/09 06:53:55;;;;;;;3.63;2.60;;;10.30;99.90;;;;;;795974;179;26457;-80
2024/02/09 06:56:22;;;;;;;6.27;2.57;;;10.30;99.90;;;;;;790880;180;26486;-79
2024/02/09 06:58:50;;;;;;;3.77;2.63;;;10.30;99.90;;;;;;789224;180;26477;-79
2024/02/09 07:01:15;;;;;;;4.43;2.40;;;10.30;99.90;;;;;;792933;177;26470;-80
2024/02/09 07:03:42;;;;;;;3.23;2.63;;;10.40;99.90;;;;;;773321;184;26494;-79
2024/02/09 07:06:09;;;;;;;5.27;2.73;;;10.40;99.90;;;;;;778312;183;26498;-80
2024/02/09 07:08:39;;;;;;;6.70;3.30;;;10.40;99.90;;;;;;781543;181;27027;-79
2024/02/09 07:11:04;;;;;;;3.80;2.80;;;10.40;99.90;;;;;;782200;183;26465;-80
2024/02/09 07:13:30;;;;;;;3.73;2.50;;;10.30;99.90;;;;;;780665;180;26488;-81
2024/02/09 07:15:57;;;;;;;6.93;3.60;;;10.40;99.90;;;;;;779637;184;26580;-78
2024/02/09 07:18:23;;;;;;;7.80;3.37;;;10.40;99.90;;;;;;780967;183;26472;-78
2024/02/09 07:20:52;;;;;;;7.13;3.60;;;10.40;99.90;;;;;;780074;180;26513;-79
2024/02/09 07:23:17;;;;;;;7.60;4.23;;;10.40;99.90;;;;;;780104;181;26501;-78
2024/02/09 07:25:43;;;;;;;8.03;3.90;;;10.40;99.90;;;;;;779790;181;26489;-78
2024/02/09 07:28:10;;;;;;;5.97;3.07;;;10.40;99.90;;;;;;779882;180;26482;-79
2024/02/09 07:30:38;;;;;;;6.27;3.23;;;10.50;99.90;;;;;;778963;182;27043;-78
2024/02/09 07:33:03;;;;;;;6.07;3.70;;;10.50;99.90;;;;;;781354;183;26482;-80
2024/02/09 07:35:30;;;;;;;4.23;2.93;;;10.50;99.90;;;;;;780877;183;26578;-79
2024/02/09 07:37:57;;;;;;;4.33;2.80;;;10.60;99.90;;;;;;779614;184;27040;-79
2024/02/09 07:40:23;;;;;;;5.40;2.70;;;10.60;99.90;;;;;;780210;183;26484;-79
2024/02/09 07:42:50;;;;;;;4.20;2.80;;;10.70;99.90;;;;;;780257;184;26555;-79
2024/02/09 07:45:16;;;;;;;6.40;2.90;;;10.70;99.90;;;;;;779493;184;26524;-79
2024/02/09 07:47:44;;;;;;;6.53;3.60;;;10.70;99.90;;;;;;779688;184;26515;-79
2024/02/09 07:50:10;;;;;;;8.23;3.10;;;10.60;99.90;;;;;;782486;182;26611;-79
2024/02/09 07:52:38;;;;;;;4.13;2.93;;;10.60;99.90;;;;;;782289;179;26532;-79
2024/02/09 07:55:03;;;;;;;5.57;3.93;;;10.60;99.90;;;;;;780951;182;26508;-78
2024/02/09 07:57:30;;;;;;;8.57;4.00;;;10.60;99.90;;;;;;780686;183;27026;-79
2024/02/09 07:59:57;;;;;;;7.07;3.33;;;10.80;99.90;;;;;;781191;184;26468;-78
2024/02/09 08:02:23;;;;;;;7.47;4.20;;;10.90;99.90;;;;;;779888;180;26486;-78
2024/02/09 08:04:50;;;;;;;9.30;3.80;;;11.30;99.90;;;;;;780947;183;26495;-80
2024/02/09 08:07:20;;;;;;;7.13;3.43;;;11.30;99.90;;;;;;780230;183;26475;-78
2024/02/09 08:09:44;;;;;;;9.40;3.33;;;11.30;99.90;;;;;;780889;183;26477;-78
2024/02/09 08:12:12;;;;;;;5.83;3.67;;;11.40;99.90;;;;;;780282;183;26477;-79
2024/02/09 08:14:36;;;;;;;11.77;3.40;;;11.50;99.90;;;;;;779983;180;26518;-78
2024/02/09 08:17:03;;;;;;;8.93;3.33;;;11.40;99.90;;;;;;780506;182;26485;-78
2024/02/09 08:19:32;;;;;;;6.83;2.87;;;11.40;99.90;;;;;;780688;181;26465;-80
2024/02/09 08:21:56;;;;;;;7.90;3.47;;;11.50;99.90;;;;;;780213;181;26485;-78
2024/02/09 08:24:23;;;;;;;6.70;3.20;;;11.60;99.90;;;;;;782265;183;27123;-79
2024/02/09 08:26:49;;;;;;;7.37;3.23;;;11.60;99.90;;;;;;781415;183;26475;-78
2024/02/09 08:29:16;;;;;;;5.13;3.47;;;11.70;99.90;;;;;;782071;184;27026;-79
2024/02/09 08:31:43;;;;;;;6.60;3.43;;;11.70;99.90;;;;;;781341;180;26470;-78
2024/02/09 08:34:09;;;;;;;5.70;2.80;;;11.70;99.90;;;;;;778976;184;27108;-77
2024/02/09 08:36:36;;;;;;;5.07;3.27;;;11.70;99.90;;;;;;779020;183;26476;-79
2024/02/09 08:39:03;;;;;;;7.07;4.07;;;11.70;99.90;;;;;;778747;180;26550;-78
2024/02/09 08:41:29;;;;;;;7.00;3.10;;;11.70;99.90;;;;;;780807;183;26506;-79
2024/02/09 08:43:56;;;;;;;5.80;2.80;;;11.70;99.90;;;;;;779784;184;26545;-77
2024/02/09 08:46:23;;;;;;;4.80;3.30;;;11.90;99.90;;;;;;779168;182;26565;-77
2024/02/09 08:48:49;;;;;;;5.33;2.63;;;11.90;99.90;;;;;;779505;182;26976;-78
2024/02/09 08:51:15;;;;;;;5.93;2.53;;;11.90;99.90;;;;;;779422;184;27071;-78
2024/02/09 08:53:42;;;;;;;5.83;3.47;;;12.00;99.90;;;;;;779393;183;26474;-77
2024/02/09 08:56:09;;;;;;;3.73;2.27;;;12.00;99.90;;;;;;781472;177;26509;-78
2024/02/09 08:58:36;;;;;;;4.27;2.83;;;12.00;99.90;;;;;;782142;183;26461;-77
2024/02/09 09:01:03;;;;;;;8.20;2.80;;;12.10;99.90;;;;;;783684;182;26467;-79
2024/02/09 09:03:28;;;;;;;5.53;2.93;;;12.00;99.90;;;;;;782119;181;26484;-77
2024/02/09 09:05:55;;;;;;;4.77;2.50;;;12.00;99.90;;;;;;783178;183;26492;-79
2024/02/09 09:08:22;;;;;;;4.50;2.87;;;12.20;99.90;;;;;;764892;183;26547;-78
2024/02/09 09:10:48;;;;;;;7.13;3.07;;;12.20;99.90;;;;;;780414;184;26552;-78
2024/02/09 09:13:15;;;;;;;7.10;3.03;;;12.20;99.90;;;;;;780936;184;26490;-81
2024/02/09 09:15:41;;;;;;;8.53;6.00;;;12.20;99.90;;;;;;781314;182;26485;-85
2024/02/09 09:18:08;;;;;;;8.03;6.37;;;12.20;99.90;;;;;;780724;184;26474;-85
2024/02/09 09:20:35;;;;;;;8.47;4.10;;;12.20;99.90;;;;;;780890;180;26485;-84
2024/02/09 09:23:02;;;;;;;6.23;3.53;;;12.20;99.90;;;;;;781672;183;26476;-84
2024/02/09 09:25:29;;;;;;;7.47;5.27;;;12.30;99.90;;;;;;782888;183;26501;-84
2024/02/09 09:27:55;;;;;;;6.37;4.03;;;12.40;99.90;;;;;;782091;177;26458;-84
2024/02/09 09:30:22;;;;;;;5.37;4.03;;;12.40;99.90;;;;;;779499;177;26470;-85
2024/02/09 09:32:49;;;;;;;6.07;3.60;;;12.50;99.90;;;;;;785565;173;26510;-84
2024/02/09 09:35:16;;;;;;;6.10;2.90;;;12.50;99.90;;;;;;806702;178;26513;-84
2024/02/09 09:37:44;;;;;;;6.43;3.03;;;12.50;99.90;;;;;;811914;176;26450;-84
2024/02/09 09:40:10;;;;;;;4.87;2.93;;;12.50;99.90;;;;;;810399;177;26397;-84
2024/02/09 09:42:36;;;;;;;5.57;3.07;;;12.50;99.90;;;;;;806984;177;26414;-84
2024/02/09 09:45:07;;;;;;;6.87;3.30;;;12.50;99.90;;;;;;802763;177;26421;-84
2024/02/09 09:47:31;;;;;;;8.47;3.60;;;12.40;99.90;;;;;;808234;177;26413;-83
2024/02/09 09:49:56;;;;;;;7.20;3.23;;;12.40;99.90;;;;;;811847;177;26419;-84
2024/02/09 09:52:24;;;;;;;4.90;3.20;;;12.40;99.90;;;;;;804968;177;26407;-84
2024/02/09 09:54:50;;;;;;;6.10;3.20;;;12.40;99.90;;;;;;805359;177;26396;-85
2024/02/09 09:57:17;;;;;;;7.53;2.97;;;12.50;99.90;;;;;;811487;173;26469;-84
2024/02/09 09:59:44;;;;;;;7.20;3.33;;;12.50;99.90;;;;;;809542;177;26936;-84
2024/02/09 10:02:10;;;;;;;4.73;3.40;;;12.40;99.90;;;;;;809145;177;26400;-85
2024/02/09 10:04:41;;;;;;;7.03;3.70;;;12.40;99.90;;;;;;790968;180;26431;-83
2024/02/09 10:07:09;;;;;;;7.53;4.20;;;12.50;99.90;;;;;;808293;176;26418;-84
2024/02/09 10:09:45;;;;;;;7.87;4.87;;;12.50;99.90;;;;;;791714;181;26413;-83
2024/02/09 10:12:12;;;;;;;6.97;3.53;;;12.60;99.90;;;;;;808598;175;26412;-83
2024/02/09 10:14:39;;;;;;;8.50;4.10;;;12.60;99.90;;;;;;805128;175;26431;-84
2024/02/09 10:17:11;;;;;;;10.33;4.93;;;12.60;99.90;;;;;;798341;179;26463;-84
2024/02/09 10:19:36;;;;;;;8.63;4.80;;;12.70;99.90;;;;;;810517;177;27042;-84
2024/02/09 10:22:03;;;;;;;8.87;5.03;;;12.80;99.90;;;;;;805345;177;26463;-85
2024/02/09 10:24:29;;;;;;;15.73;8.80;;;12.70;99.90;;;;;;801089;177;26467;-84
2024/02/09 10:26:56;;;;;;;16.40;7.63;;;12.70;99.90;;;;;;812275;176;26432;-84
2024/02/09 10:29:24;;;;;;;9.27;5.50;;;12.70;99.90;;;;;;808282;177;26570;-85
2024/02/09 10:31:54;;;;;;;4.93;3.57;;;12.70;99.90;;;;;;799871;177;26435;-85
2024/02/09 10:34:20;;;;;;;7.73;3.70;;;12.70;99.90;;;;;;799972;177;26572;-84
2024/02/09 10:36:47;;;;;;;5.33;3.23;;;12.70;99.90;;;;;;805538;177;26478;-84
2024/02/09 10:39:13;;;;;;;5.97;3.33;;;12.60;99.90;;;;;;804576;177;26473;-83
2024/02/09 10:41:41;;;;;;;6.57;3.60;;;12.60;99.90;;;;;;799970;177;26961;-84
2024/02/09 10:44:08;;;;;;;7.10;4.03;;;12.60;99.90;;;;;;807614;177;26431;-83
2024/02/09 10:46:33;;;;;;;7.80;3.63;;;12.60;99.90;;;;;;798669;177;26478;-84
2024/02/09 10:49:00;;;;;;;6.40;3.57;;;12.60;99.90;;;;;;799394;177;26480;-83
2024/02/09 10:51:28;;;;;;;8.03;4.17;;;12.60;99.90;;;;;;805099;178;26958;-85
2024/02/09 10:53:57;;;;;;;6.73;3.20;;;12.60;99.90;;;;;;801867;177;26990;-86
2024/02/09 10:56:26;;;;;;;7.23;4.20;;;12.70;99.90;;;;;;808319;177;27016;-84
2024/02/09 10:58:52;;;;;;;8.27;4.37;;;12.70;99.90;;;;;;804171;177;26447;-84
2024/02/09 11:01:17;;;;;;;7.70;4.50;;;12.80;99.90;;;;;;810473;177;26411;-84
2024/02/09 11:03:44;;;;;;;6.87;3.80;;;12.80;99.90;;;;;;802947;177;26436;-84
2024/02/09 11:06:11;;;;;;;6.47;3.33;;;12.80;99.90;;;;;;798845;177;26450;-85
2024/02/09 11:08:37;;;;;;;12.23;6.40;;;12.90;99.90;;;;;;804423;177;26495;-84
2024/02/09 11:11:04;;;;;;;8.03;3.33;;;12.90;99.90;;;;;;801608;177;26474;-84
2024/02/09 11:13:31;;;;;;;4.73;3.87;;;13.00;99.90;;;;;;800384;177;26440;-85
2024/02/09 11:15:58;;;;;;;6.80;4.17;;;13.00;99.90;;;;;;809354;176;26518;-85
2024/02/09 11:18:31;;;;;;;6.43;3.53;;;13.00;99.90;;;;;;808687;177;26974;-85
2024/02/09 11:21:01;;;;;;;6.97;3.50;;;13.10;99.90;;;;;;803620;177;27082;-84
2024/02/09 11:23:28;;;;;;;5.37;4.00;;;13.10;99.90;;;;;;802669;176;26453;-84
2024/02/09 11:25:54;;;;;;;7.83;3.90;;;13.10;99.90;;;;;;804633;177;26416;-85
2024/02/09 11:28:21;;;;;;;7.57;4.43;;;13.00;99.90;;;;;;814437;176;26579;-85
2024/02/09 11:30:54;;;;;;;6.17;4.40;;;13.00;99.90;;;;;;803851;176;26506;-84
2024/02/09 11:33:15;;;;;;;6.60;4.20;;;13.00;99.90;;;;;;801717;177;26443;-84
2024/02/09 11:35:41;;;;;;;7.10;4.43;;;13.10;99.90;;;;;;808319;177;26427;-84
2024/02/09 11:38:08;;;;;;;5.13;3.90;;;13.00;99.90;;;;;;806432;177;26481;-84
2024/02/09 11:40:36;;;;;;;9.53;5.10;;;13.10;99.90;;;;;;807695;176;26417;-84
2024/02/09 11:43:01;;;;;;;4.87;3.07;;;13.10;99.90;;;;;;804978;177;26470;-82
2024/02/09 11:45:28;;;;;;;10.43;5.17;;;13.10;99.80;;;;;;811541;177;26418;-84
2024/02/09 11:47:54;;;;;;;34.40;21.03;;;13.00;99.90;;;;;;809122;177;26495;-84
2024/02/09 11:50:21;;;;;;;6.37;3.80;;;12.90;99.90;;;;;;809814;177;26492;-83
2024/02/09 11:52:47;;;;;;;6.73;3.83;;;12.90;99.90;;;;;;810053;177;26419;-84
2024/02/09 11:55:14;;;;;;;11.77;7.57;;;12.70;99.90;;;;;;801968;177;26421;-84
2024/02/09 11:57:41;;;;;;;28.07;19.37;;;12.60;99.90;;;;;;807872;176;26427;-84
2024/02/09 12:00:08;;;;;;;32.40;19.93;;;12.50;99.90;;;;;;804881;177;26440;-84
2024/02/09 12:02:35;;;;;;;43.23;25.80;;;12.40;99.90;;;;;;809662;177;26485;-83
2024/02/09 12:05:05;;;;;;;62.00;37.30;;;12.40;99.90;;;;;;798112;177;26479;-84
2024/02/09 12:07:28;;;;;;;68.27;38.53;;;12.50;99.90;;;;;;808682;177;26513;-83
2024/02/09 12:09:55;;;;;;;54.77;32.63;;;12.50;99.90;;;;;;804629;177;26480;-85
2024/02/09 12:12:22;;;;;;;40.20;25.53;;;12.50;99.90;;;;;;811031;177;26444;-84
2024/02/09 12:14:48;;;;;;;14.23;8.93;;;12.50;99.90;;;;;;804937;177;26470;-83
2024/02/09 12:17:15;;;;;;;150.70;81.57;;;12.50;99.90;;;;;;801475;177;26861;-85
2024/02/09 12:19:43;;;;;;;63.40;35.23;;;12.50;99.90;;;;;;808886;177;26468;-84
2024/02/09 12:22:08;;;;;;;16.73;10.37;;;12.40;99.90;;;;;;801611;177;26424;-84
2024/02/09 12:24:35;;;;;;;8.60;5.43;;;12.50;99.90;;;;;;797367;177;26474;-83
2024/02/09 12:27:13;;;;;;;8.33;5.43;;;12.70;99.90;;;;;;801996;177;26434;-84
2024/02/09 12:29:35;;;;;;;6.83;4.30;;;13.00;99.90;;;;;;801728;177;26559;-84
2024/02/09 12:32:01;;;;;;;7.93;4.00;;;13.30;99.90;;;;;;807789;177;26427;-83
2024/02/09 12:34:28;;;;;;;29.00;18.03;;;13.40;99.90;;;;;;803808;175;26454;-84
2024/02/09 12:36:57;;;;;;;7.10;4.00;;;13.60;99.70;;;;;;806680;175;26456;-84
2024/02/09 12:39:23;;;;;;;15.67;9.63;;;13.60;98.90;;;;;;806449;177;26427;-79
2024/02/09 12:41:58;;;;;;;13.20;5.97;;;13.70;99.10;;;;;;806987;177;26519;-81
2024/02/09 12:44:27;;;;;;;10.17;4.23;;;13.70;99.10;;;;;;804756;177;26456;-82
2024/02/09 12:46:52;;;;;;;7.77;3.63;;;13.80;98.90;;;;;;797262;172;26477;-78
2024/02/09 12:49:19;;;;;;;5.80;4.40;;;13.70;98.80;;;;;;793265;180;27155;-77
2024/02/09 12:51:45;;;;;;;7.43;4.70;;;13.70;98.60;;;;;;810894;176;26446;-79
2024/02/09 12:54:11;;;;;;;7.57;4.00;;;13.70;98.90;;;;;;803540;176;26427;-76
2024/02/09 12:56:39;;;;;;;6.83;4.60;;;13.70;98.50;;;;;;801788;176;26471;-78
2024/02/09 12:59:07;;;;;;;9.27;5.60;;;13.70;99.90;;;;;;785262;179;26474;-78
2024/02/09 13:01:31;;;;;;;7.27;3.93;;;13.70;99.10;;;;;;785332;177;26474;-79
2024/02/09 13:03:58;;;;;;;6.60;4.70;;;13.70;98.30;;;;;;780100;178;26451;-79
2024/02/09 13:06:25;;;;;;;8.17;4.90;;;13.70;98.80;;;;;;786057;180;26487;-81
2024/02/09 13:08:53;;;;;;;6.07;4.10;;;13.60;98.70;;;;;;787237;179;26522;-83
2024/02/09 13:11:22;;;;;;;6.63;4.23;;;13.70;98.50;;;;;;784524;179;26434;-88
2024/02/09 13:13:47;;;;;;;6.47;4.23;;;13.60;98.60;;;;;;778179;177;26476;-85
2024/02/09 13:16:14;;;;;;;8.70;4.57;;;13.60;98.30;;;;;;787989;176;26486;-78
2024/02/09 13:18:40;;;;;;;7.77;4.33;;;13.60;98.30;;;;;;787008;180;26429;-79
2024/02/09 13:21:07;;;;;;;6.57;4.53;;;13.60;98.60;;;;;;784105;182;26480;-76
2024/02/09 13:23:34;;;;;;;7.33;4.00;;;13.60;98.40;;;;;;769111;184;26555;-79
2024/02/09 13:26:09;;;;;;;5.27;3.43;;;13.60;98.20;;;;;;771579;183;27046;-77
2024/02/09 13:28:29;;;;;;;4.83;2.90;;;13.60;98.00;;;;;;769424;183;26660;-79
2024/02/09 13:30:55;;;;;;;4.80;3.17;;;13.70;97.30;;;;;;784561;180;26475;-78
2024/02/09 13:33:22;;;;;;;6.33;3.33;;;13.70;97.80;;;;;;780410;179;27050;-79
2024/02/09 13:35:48;;;;;;;8.00;3.97;;;13.70;97.50;;;;;;784469;181;26471;-79
2024/02/09 13:38:15;;;;;;;8.00;4.03;;;13.80;97.60;;;;;;779843;180;26468;-78
2024/02/09 13:40:42;;;;;;;7.10;3.17;;;13.70;97.60;;;;;;783827;179;26515;-78
2024/02/09 13:43:09;;;;;;;5.00;2.97;;;13.80;97.20;;;;;;777982;179;27105;-77
2024/02/09 13:45:35;;;;;;;7.47;4.77;;;13.80;97.50;;;;;;784494;180;26477;-77
2024/02/09 13:48:02;;;;;;;9.83;3.27;;;13.70;97.30;;;;;;782494;179;26479;-77
2024/02/09 13:50:28;;;;;;;5.23;2.97;;;13.80;97.30;;;;;;782540;179;26480;-77
2024/02/09 13:52:56;;;;;;;8.57;4.50;;;13.80;96.90;;;;;;780774;179;26551;-78
2024/02/09 13:55:22;;;;;;;6.30;3.53;;;13.80;97.00;;;;;;779443;178;26501;-79
2024/02/09 13:57:48;;;;;;;10.47;4.03;;;13.90;96.80;;;;;;779705;180;27097;-79
2024/02/09 14:00:17;;;;;;;6.20;3.50;;;13.90;96.90;;;;;;780227;180;26569;-78
2024/02/09 14:02:45;;;;;;;6.80;3.50;;;14.00;96.70;;;;;;768824;183;26571;-79
2024/02/09 14:05:11;;;;;;;5.83;2.97;;;14.00;96.60;;;;;;768244;184;26547;-79
2024/02/09 14:07:39;;;;;;;5.30;3.57;;;14.00;96.40;;;;;;768064;183;27070;-77
2024/02/09 14:10:07;;;;;;;6.60;3.70;;;14.00;96.70;;;;;;766850;183;26506;-79
2024/02/09 14:12:34;;;;;;;7.27;3.13;;;14.00;96.50;;;;;;779937;179;27494;-78
2024/02/09 14:15:01;;;;;;;11.33;6.00;;;14.00;96.40;;;;;;779770;179;26544;-77
2024/02/09 14:17:28;;;;;;;23.50;13.17;;;14.00;96.50;;;;;;778209;179;26557;-78
2024/02/09 14:19:54;;;;;;;25.03;15.03;;;14.00;96.40;;;;;;779994;179;26704;-77
2024/02/09 14:22:21;;;;;;;4.13;2.97;;;14.00;97.20;;;;;;780358;179;26530;-75
2024/02/09 14:24:47;;;;;;;7.83;4.23;;;14.00;96.20;;;;;;778567;180;26533;-79
2024/02/09 14:27:14;;;;;;;4.67;2.70;;;14.00;96.40;;;;;;765444;183;26585;-77
2024/02/09 14:29:41;;;;;;;6.43;4.17;;;14.00;96.00;;;;;;777805;180;26521;-79